<?xml version="1.0" encoding="UTF-8" standalone="no" ?>
<gpx xmlns="http://www.topografix.com/GPX/1/1" xmlns:xsi="http://www.w3.org/2001/XMLSchema-instance" xsi:schemaLocation="http://www.topografix.com/GPX/1/1 http://www.topografix.com/GPX/1/1/gpx.xsd" version="1.1" creator="VisuGPX - https://www.visugpx.com">
  <metadata>
    <name>Etape 5-1_Col d'Agnès</name>
  </metadata>
  <trk>
    <name><![CDATA[Etape 5_Ercé_Axat_154 kms_3924 D+ ]]></name>
    <extensions>
      <line xmlns="http://www.topografix.com/GPX/gpx_style/0/2">
        <color>0000FF</color>
        <width>4</width>
      </line>
    </extensions>
    <trkseg>
      <trkpt lat="42.789" lon="1.34033">
        <ele>755</ele>
        <time>2021-08-20T16:31:56Z</time>
      </trkpt>
      <trkpt lat="42.78902" lon="1.34048">
        <ele>756</ele>
        <time>2021-08-20T16:31:58Z</time>
      </trkpt>
      <trkpt lat="42.78905" lon="1.34063">
        <ele>757</ele>
        <time>2021-08-20T16:32:00Z</time>
      </trkpt>
      <trkpt lat="42.78913" lon="1.3408">
        <ele>758</ele>
        <time>2021-08-20T16:32:03Z</time>
      </trkpt>
      <trkpt lat="42.78955" lon="1.34132">
        <ele>762</ele>
        <time>2021-08-20T16:32:13Z</time>
      </trkpt>
      <trkpt lat="42.78978" lon="1.34164">
        <ele>766</ele>
        <time>2021-08-20T16:32:19Z</time>
      </trkpt>
      <trkpt lat="42.78983" lon="1.34177">
        <ele>767</ele>
        <time>2021-08-20T16:32:20Z</time>
      </trkpt>
      <trkpt lat="42.78986" lon="1.34189">
        <ele>768</ele>
        <time>2021-08-20T16:32:22Z</time>
      </trkpt>
      <trkpt lat="42.78986" lon="1.34196">
        <ele>769</ele>
        <time>2021-08-20T16:32:23Z</time>
      </trkpt>
      <trkpt lat="42.78985" lon="1.34199">
        <ele>769</ele>
        <time>2021-08-20T16:32:23Z</time>
      </trkpt>
      <trkpt lat="42.78983" lon="1.34208">
        <ele>770</ele>
        <time>2021-08-20T16:32:25Z</time>
      </trkpt>
      <trkpt lat="42.78967" lon="1.34243">
        <ele>771</ele>
        <time>2021-08-20T16:32:30Z</time>
      </trkpt>
      <trkpt lat="42.78953" lon="1.34273">
        <ele>773</ele>
        <time>2021-08-20T16:32:35Z</time>
      </trkpt>
      <trkpt lat="42.78943" lon="1.34299">
        <ele>774</ele>
        <time>2021-08-20T16:32:39Z</time>
      </trkpt>
      <trkpt lat="42.78936" lon="1.34327">
        <ele>776</ele>
        <time>2021-08-20T16:32:42Z</time>
      </trkpt>
      <trkpt lat="42.78928" lon="1.34368">
        <ele>779</ele>
        <time>2021-08-20T16:32:48Z</time>
      </trkpt>
      <trkpt lat="42.78924" lon="1.34409">
        <ele>784</ele>
        <time>2021-08-20T16:32:53Z</time>
      </trkpt>
      <trkpt lat="42.78924" lon="1.34443">
        <ele>787</ele>
        <time>2021-08-20T16:32:58Z</time>
      </trkpt>
      <trkpt lat="42.78926" lon="1.34476">
        <ele>791</ele>
        <time>2021-08-20T16:33:02Z</time>
      </trkpt>
      <trkpt lat="42.78939" lon="1.34595">
        <ele>801</ele>
        <time>2021-08-20T16:33:18Z</time>
      </trkpt>
      <trkpt lat="42.78942" lon="1.34621">
        <ele>804</ele>
        <time>2021-08-20T16:33:21Z</time>
      </trkpt>
      <trkpt lat="42.78945" lon="1.34632">
        <ele>806</ele>
        <time>2021-08-20T16:33:23Z</time>
      </trkpt>
      <trkpt lat="42.78952" lon="1.34663">
        <ele>810</ele>
        <time>2021-08-20T16:33:27Z</time>
      </trkpt>
      <trkpt lat="42.78951" lon="1.34686">
        <ele>813</ele>
        <time>2021-08-20T16:33:30Z</time>
      </trkpt>
      <trkpt lat="42.78933" lon="1.34763">
        <ele>823</ele>
        <time>2021-08-20T16:33:41Z</time>
      </trkpt>
      <trkpt lat="42.78926" lon="1.34784">
        <ele>825</ele>
        <time>2021-08-20T16:33:44Z</time>
      </trkpt>
      <trkpt lat="42.78913" lon="1.34811">
        <ele>827</ele>
        <time>2021-08-20T16:33:48Z</time>
      </trkpt>
      <trkpt lat="42.78903" lon="1.34826">
        <ele>828</ele>
        <time>2021-08-20T16:33:50Z</time>
      </trkpt>
      <trkpt lat="42.78894" lon="1.34835">
        <ele>829</ele>
        <time>2021-08-20T16:33:52Z</time>
      </trkpt>
      <trkpt lat="42.78843" lon="1.34884">
        <ele>832</ele>
        <time>2021-08-20T16:34:04Z</time>
      </trkpt>
      <trkpt lat="42.78827" lon="1.34903">
        <ele>834</ele>
        <time>2021-08-20T16:34:07Z</time>
      </trkpt>
      <trkpt lat="42.78809" lon="1.34931">
        <ele>837</ele>
        <time>2021-08-20T16:34:12Z</time>
      </trkpt>
      <trkpt lat="42.78793" lon="1.34961">
        <ele>840</ele>
        <time>2021-08-20T16:34:17Z</time>
      </trkpt>
      <trkpt lat="42.78778" lon="1.34993">
        <ele>843</ele>
        <time>2021-08-20T16:34:22Z</time>
      </trkpt>
      <trkpt lat="42.78773" lon="1.35013">
        <ele>844</ele>
        <time>2021-08-20T16:34:25Z</time>
      </trkpt>
      <trkpt lat="42.78771" lon="1.35031">
        <ele>845</ele>
        <time>2021-08-20T16:34:27Z</time>
      </trkpt>
      <trkpt lat="42.78772" lon="1.3508">
        <ele>850</ele>
        <time>2021-08-20T16:34:34Z</time>
      </trkpt>
      <trkpt lat="42.7877" lon="1.35111">
        <ele>854</ele>
        <time>2021-08-20T16:34:38Z</time>
      </trkpt>
      <trkpt lat="42.78766" lon="1.35134">
        <ele>856</ele>
        <time>2021-08-20T16:34:41Z</time>
      </trkpt>
      <trkpt lat="42.78759" lon="1.35154">
        <ele>857</ele>
        <time>2021-08-20T16:34:44Z</time>
      </trkpt>
      <trkpt lat="42.78724" lon="1.35207">
        <ele>861</ele>
        <time>2021-08-20T16:34:53Z</time>
      </trkpt>
      <trkpt lat="42.78697" lon="1.35268">
        <ele>868</ele>
        <time>2021-08-20T16:35:02Z</time>
      </trkpt>
      <trkpt lat="42.78686" lon="1.35306">
        <ele>874</ele>
        <time>2021-08-20T16:35:08Z</time>
      </trkpt>
      <trkpt lat="42.78657" lon="1.35363">
        <ele>880</ele>
        <time>2021-08-20T16:35:17Z</time>
      </trkpt>
      <trkpt lat="42.7861" lon="1.35424">
        <ele>883</ele>
        <time>2021-08-20T16:35:28Z</time>
      </trkpt>
      <trkpt lat="42.78588" lon="1.35463">
        <ele>886</ele>
        <time>2021-08-20T16:35:35Z</time>
      </trkpt>
      <trkpt lat="42.78559" lon="1.35523">
        <ele>893</ele>
        <time>2021-08-20T16:35:44Z</time>
      </trkpt>
      <trkpt lat="42.78533" lon="1.35596">
        <ele>902</ele>
        <time>2021-08-20T16:35:55Z</time>
      </trkpt>
      <trkpt lat="42.78469" lon="1.35708">
        <ele>910</ele>
        <time>2021-08-20T16:36:13Z</time>
      </trkpt>
      <trkpt lat="42.78446" lon="1.35769">
        <ele>915</ele>
        <time>2021-08-20T16:36:22Z</time>
      </trkpt>
      <trkpt lat="42.78419" lon="1.35826">
        <ele>917</ele>
        <time>2021-08-20T16:36:31Z</time>
      </trkpt>
      <trkpt lat="42.78413" lon="1.35842">
        <ele>919</ele>
        <time>2021-08-20T16:36:33Z</time>
      </trkpt>
      <trkpt lat="42.78408" lon="1.35874">
        <ele>922</ele>
        <time>2021-08-20T16:36:38Z</time>
      </trkpt>
      <trkpt lat="42.78407" lon="1.35889">
        <ele>924</ele>
        <time>2021-08-20T16:36:39Z</time>
      </trkpt>
      <trkpt lat="42.78408" lon="1.35905">
        <ele>926</ele>
        <time>2021-08-20T16:36:42Z</time>
      </trkpt>
      <trkpt lat="42.7841" lon="1.35918">
        <ele>928</ele>
        <time>2021-08-20T16:36:43Z</time>
      </trkpt>
      <trkpt lat="42.7843" lon="1.35974">
        <ele>937</ele>
        <time>2021-08-20T16:36:51Z</time>
      </trkpt>
      <trkpt lat="42.78433" lon="1.35987">
        <ele>939</ele>
        <time>2021-08-20T16:36:53Z</time>
      </trkpt>
      <trkpt lat="42.78435" lon="1.36013">
        <ele>942</ele>
        <time>2021-08-20T16:36:57Z</time>
      </trkpt>
      <trkpt lat="42.78427" lon="1.36084">
        <ele>949</ele>
        <time>2021-08-20T16:37:06Z</time>
      </trkpt>
      <trkpt lat="42.78411" lon="1.36152">
        <ele>955</ele>
        <time>2021-08-20T16:37:15Z</time>
      </trkpt>
      <trkpt lat="42.7841" lon="1.36176">
        <ele>957</ele>
        <time>2021-08-20T16:37:18Z</time>
      </trkpt>
      <trkpt lat="42.7842" lon="1.36286">
        <ele>970</ele>
        <time>2021-08-20T16:37:33Z</time>
      </trkpt>
      <trkpt lat="42.78418" lon="1.36307">
        <ele>971</ele>
        <time>2021-08-20T16:37:36Z</time>
      </trkpt>
      <trkpt lat="42.78406" lon="1.36347">
        <ele>971</ele>
        <time>2021-08-20T16:37:41Z</time>
      </trkpt>
      <trkpt lat="42.78403" lon="1.36376">
        <ele>974</ele>
        <time>2021-08-20T16:37:45Z</time>
      </trkpt>
      <trkpt lat="42.78405" lon="1.36426">
        <ele>980</ele>
        <time>2021-08-20T16:37:52Z</time>
      </trkpt>
      <trkpt lat="42.78413" lon="1.36527">
        <ele>994</ele>
        <time>2021-08-20T16:38:05Z</time>
      </trkpt>
      <trkpt lat="42.78411" lon="1.36564">
        <ele>998</ele>
        <time>2021-08-20T16:38:10Z</time>
      </trkpt>
      <trkpt lat="42.78394" lon="1.36681">
        <ele>1005</ele>
        <time>2021-08-20T16:38:25Z</time>
      </trkpt>
      <trkpt lat="42.78391" lon="1.36748">
        <ele>1012</ele>
        <time>2021-08-20T16:38:34Z</time>
      </trkpt>
      <trkpt lat="42.78381" lon="1.36832">
        <ele>1018</ele>
        <time>2021-08-20T16:38:45Z</time>
      </trkpt>
      <trkpt lat="42.78382" lon="1.36892">
        <ele>1025</ele>
        <time>2021-08-20T16:38:53Z</time>
      </trkpt>
      <trkpt lat="42.78373" lon="1.36958">
        <ele>1030</ele>
        <time>2021-08-20T16:39:02Z</time>
      </trkpt>
      <trkpt lat="42.78362" lon="1.37014">
        <ele>1034</ele>
        <time>2021-08-20T16:39:09Z</time>
      </trkpt>
      <trkpt lat="42.78351" lon="1.37052">
        <ele>1038</ele>
        <time>2021-08-20T16:39:15Z</time>
      </trkpt>
      <trkpt lat="42.78335" lon="1.37081">
        <ele>1036</ele>
        <time>2021-08-20T16:39:20Z</time>
      </trkpt>
      <trkpt lat="42.78313" lon="1.37108">
        <ele>1037</ele>
        <time>2021-08-20T16:39:25Z</time>
      </trkpt>
      <trkpt lat="42.78222" lon="1.37284">
        <ele>1053</ele>
        <time>2021-08-20T16:39:53Z</time>
      </trkpt>
      <trkpt lat="42.78217" lon="1.37289">
        <ele>1053</ele>
        <time>2021-08-20T16:39:54Z</time>
      </trkpt>
      <trkpt lat="42.78203" lon="1.37298">
        <ele>1053</ele>
        <time>2021-08-20T16:39:57Z</time>
      </trkpt>
      <trkpt lat="42.78182" lon="1.37303">
        <ele>1050</ele>
        <time>2021-08-20T16:40:01Z</time>
      </trkpt>
      <trkpt lat="42.7817" lon="1.37307">
        <ele>1049</ele>
        <time>2021-08-20T16:40:03Z</time>
      </trkpt>
      <trkpt lat="42.78162" lon="1.37311">
        <ele>1049</ele>
        <time>2021-08-20T16:40:04Z</time>
      </trkpt>
      <trkpt lat="42.78155" lon="1.37317">
        <ele>1049</ele>
        <time>2021-08-20T16:40:06Z</time>
      </trkpt>
      <trkpt lat="42.7814" lon="1.37336">
        <ele>1051</ele>
        <time>2021-08-20T16:40:09Z</time>
      </trkpt>
      <trkpt lat="42.78114" lon="1.37379">
        <ele>1060</ele>
        <time>2021-08-20T16:40:17Z</time>
      </trkpt>
      <trkpt lat="42.78102" lon="1.37393">
        <ele>1061</ele>
        <time>2021-08-20T16:40:19Z</time>
      </trkpt>
      <trkpt lat="42.78091" lon="1.374">
        <ele>1061</ele>
        <time>2021-08-20T16:40:22Z</time>
      </trkpt>
      <trkpt lat="42.78081" lon="1.37402">
        <ele>1059</ele>
        <time>2021-08-20T16:40:23Z</time>
      </trkpt>
      <trkpt lat="42.78061" lon="1.374">
        <ele>1054</ele>
        <time>2021-08-20T16:40:27Z</time>
      </trkpt>
      <trkpt lat="42.78055" lon="1.37402">
        <ele>1054</ele>
        <time>2021-08-20T16:40:28Z</time>
      </trkpt>
      <trkpt lat="42.7805" lon="1.37407">
        <ele>1054</ele>
        <time>2021-08-20T16:40:29Z</time>
      </trkpt>
      <trkpt lat="42.78045" lon="1.37415">
        <ele>1055</ele>
        <time>2021-08-20T16:40:31Z</time>
      </trkpt>
      <trkpt lat="42.78001" lon="1.37519">
        <ele>1079</ele>
        <time>2021-08-20T16:40:46Z</time>
      </trkpt>
      <trkpt lat="42.77988" lon="1.37541">
        <ele>1086</ele>
        <time>2021-08-20T16:40:50Z</time>
      </trkpt>
      <trkpt lat="42.77983" lon="1.37547">
        <ele>1088</ele>
        <time>2021-08-20T16:40:51Z</time>
      </trkpt>
      <trkpt lat="42.77932" lon="1.37574">
        <ele>1087</ele>
        <time>2021-08-20T16:41:01Z</time>
      </trkpt>
      <trkpt lat="42.7792" lon="1.37578">
        <ele>1085</ele>
        <time>2021-08-20T16:41:03Z</time>
      </trkpt>
      <trkpt lat="42.77864" lon="1.3758">
        <ele>1090</ele>
        <time>2021-08-20T16:41:13Z</time>
      </trkpt>
      <trkpt lat="42.77821" lon="1.3759">
        <ele>1097</ele>
        <time>2021-08-20T16:41:21Z</time>
      </trkpt>
      <trkpt lat="42.77759" lon="1.37618">
        <ele>1108</ele>
        <time>2021-08-20T16:41:32Z</time>
      </trkpt>
      <trkpt lat="42.77735" lon="1.3764">
        <ele>1112</ele>
        <time>2021-08-20T16:41:38Z</time>
      </trkpt>
      <trkpt lat="42.77714" lon="1.37656">
        <ele>1111</ele>
        <time>2021-08-20T16:41:42Z</time>
      </trkpt>
      <trkpt lat="42.77687" lon="1.37666">
        <ele>1107</ele>
        <time>2021-08-20T16:41:47Z</time>
      </trkpt>
      <trkpt lat="42.77676" lon="1.37673">
        <ele>1106</ele>
        <time>2021-08-20T16:41:49Z</time>
      </trkpt>
      <trkpt lat="42.77672" lon="1.37677">
        <ele>1107</ele>
        <time>2021-08-20T16:41:50Z</time>
      </trkpt>
      <trkpt lat="42.77668" lon="1.37686">
        <ele>1108</ele>
        <time>2021-08-20T16:41:51Z</time>
      </trkpt>
      <trkpt lat="42.77653" lon="1.3773">
        <ele>1118</ele>
        <time>2021-08-20T16:41:58Z</time>
      </trkpt>
      <trkpt lat="42.77605" lon="1.37837">
        <ele>1126</ele>
        <time>2021-08-20T16:42:14Z</time>
      </trkpt>
      <trkpt lat="42.77586" lon="1.37863">
        <ele>1128</ele>
        <time>2021-08-20T16:42:19Z</time>
      </trkpt>
      <trkpt lat="42.77544" lon="1.37904">
        <ele>1130</ele>
        <time>2021-08-20T16:42:28Z</time>
      </trkpt>
      <trkpt lat="42.77532" lon="1.37925">
        <ele>1132</ele>
        <time>2021-08-20T16:42:31Z</time>
      </trkpt>
      <trkpt lat="42.77515" lon="1.37978">
        <ele>1143</ele>
        <time>2021-08-20T16:42:39Z</time>
      </trkpt>
      <trkpt lat="42.77502" lon="1.38">
        <ele>1144</ele>
        <time>2021-08-20T16:42:43Z</time>
      </trkpt>
      <trkpt lat="42.77483" lon="1.38024">
        <ele>1151</ele>
        <time>2021-08-20T16:42:47Z</time>
      </trkpt>
      <trkpt lat="42.77472" lon="1.38032">
        <ele>1152</ele>
        <time>2021-08-20T16:42:49Z</time>
      </trkpt>
      <trkpt lat="42.7746" lon="1.38039">
        <ele>1152</ele>
        <time>2021-08-20T16:42:52Z</time>
      </trkpt>
      <trkpt lat="42.77425" lon="1.3805">
        <ele>1148</ele>
        <time>2021-08-20T16:42:58Z</time>
      </trkpt>
      <trkpt lat="42.77421" lon="1.38052">
        <ele>1148</ele>
        <time>2021-08-20T16:42:59Z</time>
      </trkpt>
      <trkpt lat="42.77418" lon="1.3806">
        <ele>1150</ele>
        <time>2021-08-20T16:43:00Z</time>
      </trkpt>
      <trkpt lat="42.77418" lon="1.38065">
        <ele>1152</ele>
        <time>2021-08-20T16:43:01Z</time>
      </trkpt>
      <trkpt lat="42.77421" lon="1.38072">
        <ele>1155</ele>
        <time>2021-08-20T16:43:02Z</time>
      </trkpt>
      <trkpt lat="42.77427" lon="1.38075">
        <ele>1158</ele>
        <time>2021-08-20T16:43:03Z</time>
      </trkpt>
      <trkpt lat="42.77437" lon="1.38074">
        <ele>1161</ele>
        <time>2021-08-20T16:43:05Z</time>
      </trkpt>
      <trkpt lat="42.77488" lon="1.38048">
        <ele>1163</ele>
        <time>2021-08-20T16:43:14Z</time>
      </trkpt>
      <trkpt lat="42.77512" lon="1.38032">
        <ele>1165</ele>
        <time>2021-08-20T16:43:19Z</time>
      </trkpt>
      <trkpt lat="42.7753" lon="1.38014">
        <ele>1165</ele>
        <time>2021-08-20T16:43:23Z</time>
      </trkpt>
      <trkpt lat="42.77555" lon="1.3797">
        <ele>1158</ele>
        <time>2021-08-20T16:43:30Z</time>
      </trkpt>
      <trkpt lat="42.77569" lon="1.37953">
        <ele>1157</ele>
        <time>2021-08-20T16:43:34Z</time>
      </trkpt>
      <trkpt lat="42.77651" lon="1.3789">
        <ele>1172</ele>
        <time>2021-08-20T16:43:51Z</time>
      </trkpt>
      <trkpt lat="42.77694" lon="1.37834">
        <ele>1165</ele>
        <time>2021-08-20T16:44:01Z</time>
      </trkpt>
      <trkpt lat="42.7771" lon="1.37801">
        <ele>1163</ele>
        <time>2021-08-20T16:44:06Z</time>
      </trkpt>
      <trkpt lat="42.77716" lon="1.37793">
        <ele>1163</ele>
        <time>2021-08-20T16:44:08Z</time>
      </trkpt>
      <trkpt lat="42.77725" lon="1.3779">
        <ele>1166</ele>
        <time>2021-08-20T16:44:09Z</time>
      </trkpt>
      <trkpt lat="42.77757" lon="1.37788">
        <ele>1179</ele>
        <time>2021-08-20T16:44:15Z</time>
      </trkpt>
      <trkpt lat="42.7777" lon="1.37782">
        <ele>1180</ele>
        <time>2021-08-20T16:44:18Z</time>
      </trkpt>
      <trkpt lat="42.77792" lon="1.37761">
        <ele>1175</ele>
        <time>2021-08-20T16:44:22Z</time>
      </trkpt>
      <trkpt lat="42.77805" lon="1.37756">
        <ele>1175</ele>
        <time>2021-08-20T16:44:25Z</time>
      </trkpt>
      <trkpt lat="42.77816" lon="1.37758">
        <ele>1179</ele>
        <time>2021-08-20T16:44:27Z</time>
      </trkpt>
      <trkpt lat="42.77833" lon="1.3777">
        <ele>1189</ele>
        <time>2021-08-20T16:44:30Z</time>
      </trkpt>
      <trkpt lat="42.77848" lon="1.37769">
        <ele>1191</ele>
        <time>2021-08-20T16:44:33Z</time>
      </trkpt>
      <trkpt lat="42.77892" lon="1.37759">
        <ele>1192</ele>
        <time>2021-08-20T16:44:41Z</time>
      </trkpt>
      <trkpt lat="42.77903" lon="1.37758">
        <ele>1194</ele>
        <time>2021-08-20T16:44:43Z</time>
      </trkpt>
      <trkpt lat="42.77911" lon="1.37761">
        <ele>1196</ele>
        <time>2021-08-20T16:44:44Z</time>
      </trkpt>
      <trkpt lat="42.77914" lon="1.37766">
        <ele>1199</ele>
        <time>2021-08-20T16:44:45Z</time>
      </trkpt>
      <trkpt lat="42.77913" lon="1.37777">
        <ele>1204</ele>
        <time>2021-08-20T16:44:46Z</time>
      </trkpt>
      <trkpt lat="42.77908" lon="1.3778">
        <ele>1205</ele>
        <time>2021-08-20T16:44:47Z</time>
      </trkpt>
      <trkpt lat="42.77889" lon="1.37778">
        <ele>1202</ele>
        <time>2021-08-20T16:44:51Z</time>
      </trkpt>
      <trkpt lat="42.77879" lon="1.37779">
        <ele>1201</ele>
        <time>2021-08-20T16:44:53Z</time>
      </trkpt>
      <trkpt lat="42.77812" lon="1.37809">
        <ele>1205</ele>
        <time>2021-08-20T16:45:05Z</time>
      </trkpt>
      <trkpt lat="42.77783" lon="1.3783">
        <ele>1206</ele>
        <time>2021-08-20T16:45:11Z</time>
      </trkpt>
      <trkpt lat="42.77755" lon="1.37842">
        <ele>1203</ele>
        <time>2021-08-20T16:45:16Z</time>
      </trkpt>
      <trkpt lat="42.77751" lon="1.37847">
        <ele>1204</ele>
        <time>2021-08-20T16:45:17Z</time>
      </trkpt>
      <trkpt lat="42.77751" lon="1.37853">
        <ele>1207</ele>
        <time>2021-08-20T16:45:18Z</time>
      </trkpt>
      <trkpt lat="42.77752" lon="1.37859">
        <ele>1211</ele>
        <time>2021-08-20T16:45:19Z</time>
      </trkpt>
      <trkpt lat="42.77755" lon="1.37863">
        <ele>1214</ele>
        <time>2021-08-20T16:45:20Z</time>
      </trkpt>
      <trkpt lat="42.77764" lon="1.37863">
        <ele>1217</ele>
        <time>2021-08-20T16:45:21Z</time>
      </trkpt>
      <trkpt lat="42.77811" lon="1.37839">
        <ele>1220</ele>
        <time>2021-08-20T16:45:30Z</time>
      </trkpt>
      <trkpt lat="42.77837" lon="1.3783">
        <ele>1223</ele>
        <time>2021-08-20T16:45:35Z</time>
      </trkpt>
      <trkpt lat="42.77854" lon="1.37827">
        <ele>1223</ele>
        <time>2021-08-20T16:45:38Z</time>
      </trkpt>
      <trkpt lat="42.77864" lon="1.37828">
        <ele>1225</ele>
        <time>2021-08-20T16:45:40Z</time>
      </trkpt>
      <trkpt lat="42.779" lon="1.37839">
        <ele>1233</ele>
        <time>2021-08-20T16:45:46Z</time>
      </trkpt>
      <trkpt lat="42.77909" lon="1.37839">
        <ele>1234</ele>
        <time>2021-08-20T16:45:48Z</time>
      </trkpt>
      <trkpt lat="42.77938" lon="1.37823">
        <ele>1230</ele>
        <time>2021-08-20T16:45:53Z</time>
      </trkpt>
      <trkpt lat="42.77962" lon="1.37817">
        <ele>1230</ele>
        <time>2021-08-20T16:45:58Z</time>
      </trkpt>
      <trkpt lat="42.77979" lon="1.37817">
        <ele>1232</ele>
        <time>2021-08-20T16:46:01Z</time>
      </trkpt>
      <trkpt lat="42.77988" lon="1.37822">
        <ele>1236</ele>
        <time>2021-08-20T16:46:02Z</time>
      </trkpt>
      <trkpt lat="42.77989" lon="1.37826">
        <ele>1238</ele>
        <time>2021-08-20T16:46:03Z</time>
      </trkpt>
      <trkpt lat="42.77989" lon="1.37831">
        <ele>1240</ele>
        <time>2021-08-20T16:46:04Z</time>
      </trkpt>
      <trkpt lat="42.77986" lon="1.37836">
        <ele>1242</ele>
        <time>2021-08-20T16:46:05Z</time>
      </trkpt>
      <trkpt lat="42.77982" lon="1.3784">
        <ele>1243</ele>
        <time>2021-08-20T16:46:05Z</time>
      </trkpt>
      <trkpt lat="42.77956" lon="1.3784">
        <ele>1240</ele>
        <time>2021-08-20T16:46:10Z</time>
      </trkpt>
      <trkpt lat="42.77946" lon="1.37842">
        <ele>1239</ele>
        <time>2021-08-20T16:46:12Z</time>
      </trkpt>
      <trkpt lat="42.77942" lon="1.37845">
        <ele>1240</ele>
        <time>2021-08-20T16:46:13Z</time>
      </trkpt>
      <trkpt lat="42.77929" lon="1.37864">
        <ele>1246</ele>
        <time>2021-08-20T16:46:16Z</time>
      </trkpt>
      <trkpt lat="42.77922" lon="1.37877">
        <ele>1250</ele>
        <time>2021-08-20T16:46:18Z</time>
      </trkpt>
      <trkpt lat="42.77909" lon="1.37892">
        <ele>1255</ele>
        <time>2021-08-20T16:46:21Z</time>
      </trkpt>
      <trkpt lat="42.77889" lon="1.37904">
        <ele>1257</ele>
        <time>2021-08-20T16:46:25Z</time>
      </trkpt>
      <trkpt lat="42.7787" lon="1.37903">
        <ele>1255</ele>
        <time>2021-08-20T16:46:28Z</time>
      </trkpt>
      <trkpt lat="42.77844" lon="1.37895">
        <ele>1250</ele>
        <time>2021-08-20T16:46:33Z</time>
      </trkpt>
      <trkpt lat="42.77829" lon="1.37894">
        <ele>1247</ele>
        <time>2021-08-20T16:46:36Z</time>
      </trkpt>
      <trkpt lat="42.77824" lon="1.37901">
        <ele>1249</ele>
        <time>2021-08-20T16:46:37Z</time>
      </trkpt>
      <trkpt lat="42.77824" lon="1.37906">
        <ele>1251</ele>
        <time>2021-08-20T16:46:38Z</time>
      </trkpt>
      <trkpt lat="42.77828" lon="1.37915">
        <ele>1255</ele>
        <time>2021-08-20T16:46:39Z</time>
      </trkpt>
      <trkpt lat="42.77833" lon="1.37917">
        <ele>1257</ele>
        <time>2021-08-20T16:46:40Z</time>
      </trkpt>
      <trkpt lat="42.77851" lon="1.37921">
        <ele>1261</ele>
        <time>2021-08-20T16:46:43Z</time>
      </trkpt>
      <trkpt lat="42.77889" lon="1.37935">
        <ele>1270</ele>
        <time>2021-08-20T16:46:50Z</time>
      </trkpt>
      <trkpt lat="42.77917" lon="1.37933">
        <ele>1272</ele>
        <time>2021-08-20T16:46:55Z</time>
      </trkpt>
      <trkpt lat="42.77937" lon="1.37926">
        <ele>1272</ele>
        <time>2021-08-20T16:46:59Z</time>
      </trkpt>
      <trkpt lat="42.77948" lon="1.37918">
        <ele>1270</ele>
        <time>2021-08-20T16:47:01Z</time>
      </trkpt>
      <trkpt lat="42.77971" lon="1.37896">
        <ele>1265</ele>
        <time>2021-08-20T16:47:06Z</time>
      </trkpt>
      <trkpt lat="42.7798" lon="1.3789">
        <ele>1264</ele>
        <time>2021-08-20T16:47:08Z</time>
      </trkpt>
      <trkpt lat="42.77988" lon="1.37889">
        <ele>1265</ele>
        <time>2021-08-20T16:47:09Z</time>
      </trkpt>
      <trkpt lat="42.78001" lon="1.37893">
        <ele>1268</ele>
        <time>2021-08-20T16:47:12Z</time>
      </trkpt>
      <trkpt lat="42.78029" lon="1.37928">
        <ele>1283</ele>
        <time>2021-08-20T16:47:19Z</time>
      </trkpt>
      <trkpt lat="42.7804" lon="1.37934">
        <ele>1286</ele>
        <time>2021-08-20T16:47:21Z</time>
      </trkpt>
      <trkpt lat="42.78046" lon="1.37934">
        <ele>1286</ele>
        <time>2021-08-20T16:47:22Z</time>
      </trkpt>
      <trkpt lat="42.78053" lon="1.37932">
        <ele>1286</ele>
        <time>2021-08-20T16:47:23Z</time>
      </trkpt>
      <trkpt lat="42.78114" lon="1.37899">
        <ele>1275</ele>
        <time>2021-08-20T16:47:35Z</time>
      </trkpt>
      <trkpt lat="42.78135" lon="1.37895">
        <ele>1275</ele>
        <time>2021-08-20T16:47:38Z</time>
      </trkpt>
      <trkpt lat="42.78154" lon="1.37898">
        <ele>1277</ele>
        <time>2021-08-20T16:47:42Z</time>
      </trkpt>
      <trkpt lat="42.78157" lon="1.37902">
        <ele>1279</ele>
        <time>2021-08-20T16:47:43Z</time>
      </trkpt>
      <trkpt lat="42.78158" lon="1.37906">
        <ele>1281</ele>
        <time>2021-08-20T16:47:43Z</time>
      </trkpt>
      <trkpt lat="42.78156" lon="1.37914">
        <ele>1283</ele>
        <time>2021-08-20T16:47:44Z</time>
      </trkpt>
      <trkpt lat="42.78153" lon="1.37917">
        <ele>1284</ele>
        <time>2021-08-20T16:47:45Z</time>
      </trkpt>
      <trkpt lat="42.78148" lon="1.37918">
        <ele>1284</ele>
        <time>2021-08-20T16:47:46Z</time>
      </trkpt>
      <trkpt lat="42.78131" lon="1.37912">
        <ele>1281</ele>
        <time>2021-08-20T16:47:49Z</time>
      </trkpt>
      <trkpt lat="42.78115" lon="1.37915">
        <ele>1281</ele>
        <time>2021-08-20T16:47:52Z</time>
      </trkpt>
      <trkpt lat="42.78098" lon="1.37928">
        <ele>1285</ele>
        <time>2021-08-20T16:47:55Z</time>
      </trkpt>
      <trkpt lat="42.78059" lon="1.37971">
        <ele>1305</ele>
        <time>2021-08-20T16:48:04Z</time>
      </trkpt>
      <trkpt lat="42.78046" lon="1.37981">
        <ele>1308</ele>
        <time>2021-08-20T16:48:07Z</time>
      </trkpt>
      <trkpt lat="42.78009" lon="1.37995">
        <ele>1309</ele>
        <time>2021-08-20T16:48:14Z</time>
      </trkpt>
      <trkpt lat="42.77995" lon="1.38003">
        <ele>1311</ele>
        <time>2021-08-20T16:48:16Z</time>
      </trkpt>
      <trkpt lat="42.77953" lon="1.38033">
        <ele>1317</ele>
        <time>2021-08-20T16:48:25Z</time>
      </trkpt>
      <trkpt lat="42.77887" lon="1.38065">
        <ele>1325</ele>
        <time>2021-08-20T16:48:37Z</time>
      </trkpt>
      <trkpt lat="42.77875" lon="1.3807">
        <ele>1327</ele>
        <time>2021-08-20T16:48:40Z</time>
      </trkpt>
      <trkpt lat="42.77865" lon="1.38072">
        <ele>1328</ele>
        <time>2021-08-20T16:48:41Z</time>
      </trkpt>
      <trkpt lat="42.77833" lon="1.38072">
        <ele>1327</ele>
        <time>2021-08-20T16:48:47Z</time>
      </trkpt>
      <trkpt lat="42.77828" lon="1.38074">
        <ele>1327</ele>
        <time>2021-08-20T16:48:48Z</time>
      </trkpt>
      <trkpt lat="42.77826" lon="1.38079">
        <ele>1329</ele>
        <time>2021-08-20T16:48:49Z</time>
      </trkpt>
      <trkpt lat="42.77826" lon="1.38084">
        <ele>1332</ele>
        <time>2021-08-20T16:48:49Z</time>
      </trkpt>
      <trkpt lat="42.77827" lon="1.38089">
        <ele>1335</ele>
        <time>2021-08-20T16:48:50Z</time>
      </trkpt>
      <trkpt lat="42.7783" lon="1.38093">
        <ele>1337</ele>
        <time>2021-08-20T16:48:51Z</time>
      </trkpt>
      <trkpt lat="42.77837" lon="1.38095">
        <ele>1339</ele>
        <time>2021-08-20T16:48:52Z</time>
      </trkpt>
      <trkpt lat="42.77848" lon="1.38096">
        <ele>1340</ele>
        <time>2021-08-20T16:48:54Z</time>
      </trkpt>
      <trkpt lat="42.77875" lon="1.38092">
        <ele>1338</ele>
        <time>2021-08-20T16:48:59Z</time>
      </trkpt>
      <trkpt lat="42.77904" lon="1.38081">
        <ele>1333</ele>
        <time>2021-08-20T16:49:04Z</time>
      </trkpt>
      <trkpt lat="42.77912" lon="1.38081">
        <ele>1333</ele>
        <time>2021-08-20T16:49:06Z</time>
      </trkpt>
      <trkpt lat="42.77934" lon="1.38091">
        <ele>1340</ele>
        <time>2021-08-20T16:49:10Z</time>
      </trkpt>
      <trkpt lat="42.77957" lon="1.38095">
        <ele>1345</ele>
        <time>2021-08-20T16:49:14Z</time>
      </trkpt>
      <trkpt lat="42.7797" lon="1.38092">
        <ele>1345</ele>
        <time>2021-08-20T16:49:16Z</time>
      </trkpt>
      <trkpt lat="42.78015" lon="1.38073">
        <ele>1341</ele>
        <time>2021-08-20T16:49:25Z</time>
      </trkpt>
      <trkpt lat="42.78039" lon="1.38068">
        <ele>1341</ele>
        <time>2021-08-20T16:49:29Z</time>
      </trkpt>
      <trkpt lat="42.78071" lon="1.38068">
        <ele>1344</ele>
        <time>2021-08-20T16:49:35Z</time>
      </trkpt>
      <trkpt lat="42.7808" lon="1.38071">
        <ele>1346</ele>
        <time>2021-08-20T16:49:36Z</time>
      </trkpt>
      <trkpt lat="42.78087" lon="1.3808">
        <ele>1349</ele>
        <time>2021-08-20T16:49:38Z</time>
      </trkpt>
      <trkpt lat="42.78092" lon="1.38097">
        <ele>1351</ele>
        <time>2021-08-20T16:49:40Z</time>
      </trkpt>
      <trkpt lat="42.78105" lon="1.38179">
        <ele>1364</ele>
        <time>2021-08-20T16:49:51Z</time>
      </trkpt>
      <trkpt lat="42.78104" lon="1.38199">
        <ele>1366</ele>
        <time>2021-08-20T16:49:54Z</time>
      </trkpt>
      <trkpt lat="42.78096" lon="1.38267">
        <ele>1374</ele>
        <time>2021-08-20T16:50:03Z</time>
      </trkpt>
      <trkpt lat="42.78095" lon="1.38282">
        <ele>1376</ele>
        <time>2021-08-20T16:50:05Z</time>
      </trkpt>
      <trkpt lat="42.78098" lon="1.38299">
        <ele>1377</ele>
        <time>2021-08-20T16:50:07Z</time>
      </trkpt>
      <trkpt lat="42.78103" lon="1.38305">
        <ele>1378</ele>
        <time>2021-08-20T16:50:08Z</time>
      </trkpt>
      <trkpt lat="42.78112" lon="1.38308">
        <ele>1378</ele>
        <time>2021-08-20T16:50:10Z</time>
      </trkpt>
      <trkpt lat="42.78137" lon="1.38296">
        <ele>1375</ele>
        <time>2021-08-20T16:50:15Z</time>
      </trkpt>
      <trkpt lat="42.78155" lon="1.38294">
        <ele>1374</ele>
        <time>2021-08-20T16:50:18Z</time>
      </trkpt>
      <trkpt lat="42.78171" lon="1.383">
        <ele>1374</ele>
        <time>2021-08-20T16:50:21Z</time>
      </trkpt>
      <trkpt lat="42.78179" lon="1.38307">
        <ele>1376</ele>
        <time>2021-08-20T16:50:23Z</time>
      </trkpt>
      <trkpt lat="42.78186" lon="1.38318">
        <ele>1378</ele>
        <time>2021-08-20T16:50:25Z</time>
      </trkpt>
      <trkpt lat="42.7821" lon="1.38385">
        <ele>1388</ele>
        <time>2021-08-20T16:50:34Z</time>
      </trkpt>
      <trkpt lat="42.78231" lon="1.3843">
        <ele>1392</ele>
        <time>2021-08-20T16:50:41Z</time>
      </trkpt>
      <trkpt lat="42.78237" lon="1.38447">
        <ele>1393</ele>
        <time>2021-08-20T16:50:44Z</time>
      </trkpt>
      <trkpt lat="42.78265" lon="1.38554">
        <ele>1396</ele>
        <time>2021-08-20T16:50:59Z</time>
      </trkpt>
      <trkpt lat="42.78277" lon="1.38582">
        <ele>1398</ele>
        <time>2021-08-20T16:51:03Z</time>
      </trkpt>
      <trkpt lat="42.78312" lon="1.38648">
        <ele>1402</ele>
        <time>2021-08-20T16:51:13Z</time>
      </trkpt>
      <trkpt lat="42.78328" lon="1.38686">
        <ele>1405</ele>
        <time>2021-08-20T16:51:19Z</time>
      </trkpt>
      <trkpt lat="42.78331" lon="1.38702">
        <ele>1406</ele>
        <time>2021-08-20T16:51:21Z</time>
      </trkpt>
      <trkpt lat="42.78331" lon="1.38721">
        <ele>1407</ele>
        <time>2021-08-20T16:51:24Z</time>
      </trkpt>
      <trkpt lat="42.78327" lon="1.3874">
        <ele>1408</ele>
        <time>2021-08-20T16:51:26Z</time>
      </trkpt>
      <trkpt lat="42.78306" lon="1.38803">
        <ele>1413</ele>
        <time>2021-08-20T16:51:35Z</time>
      </trkpt>
      <trkpt lat="42.78299" lon="1.38833">
        <ele>1415</ele>
        <time>2021-08-20T16:51:39Z</time>
      </trkpt>
      <trkpt lat="42.78297" lon="1.38855">
        <ele>1417</ele>
        <time>2021-08-20T16:51:42Z</time>
      </trkpt>
      <trkpt lat="42.78298" lon="1.38877">
        <ele>1419</ele>
        <time>2021-08-20T16:51:45Z</time>
      </trkpt>
      <trkpt lat="42.78308" lon="1.38931">
        <ele>1423</ele>
        <time>2021-08-20T16:51:53Z</time>
      </trkpt>
      <trkpt lat="42.78314" lon="1.38947">
        <ele>1424</ele>
        <time>2021-08-20T16:51:55Z</time>
      </trkpt>
      <trkpt lat="42.78322" lon="1.38959">
        <ele>1425</ele>
        <time>2021-08-20T16:51:57Z</time>
      </trkpt>
      <trkpt lat="42.78329" lon="1.38965">
        <ele>1425</ele>
        <time>2021-08-20T16:51:58Z</time>
      </trkpt>
      <trkpt lat="42.78344" lon="1.38971">
        <ele>1429</ele>
        <time>2021-08-20T16:52:01Z</time>
      </trkpt>
      <trkpt lat="42.7835" lon="1.3897">
        <ele>1432</ele>
        <time>2021-08-20T16:52:02Z</time>
      </trkpt>
      <trkpt lat="42.78363" lon="1.38961">
        <ele>1435</ele>
        <time>2021-08-20T16:52:05Z</time>
      </trkpt>
      <trkpt lat="42.78376" lon="1.38946">
        <ele>1438</ele>
        <time>2021-08-20T16:52:08Z</time>
      </trkpt>
      <trkpt lat="42.78383" lon="1.38934">
        <ele>1438</ele>
        <time>2021-08-20T16:52:10Z</time>
      </trkpt>
      <trkpt lat="42.78387" lon="1.38915">
        <ele>1437</ele>
        <time>2021-08-20T16:52:13Z</time>
      </trkpt>
      <trkpt lat="42.78394" lon="1.38878">
        <ele>1431</ele>
        <time>2021-08-20T16:52:18Z</time>
      </trkpt>
      <trkpt lat="42.78402" lon="1.38856">
        <ele>1427</ele>
        <time>2021-08-20T16:52:21Z</time>
      </trkpt>
      <trkpt lat="42.78412" lon="1.3884">
        <ele>1425</ele>
        <time>2021-08-20T16:52:23Z</time>
      </trkpt>
      <trkpt lat="42.78436" lon="1.38809">
        <ele>1428</ele>
        <time>2021-08-20T16:52:29Z</time>
      </trkpt>
      <trkpt lat="42.7847" lon="1.38757">
        <ele>1429</ele>
        <time>2021-08-20T16:52:38Z</time>
      </trkpt>
      <trkpt lat="42.78484" lon="1.3873">
        <ele>1430</ele>
        <time>2021-08-20T16:52:43Z</time>
      </trkpt>
      <trkpt lat="42.78489" lon="1.38712">
        <ele>1430</ele>
        <time>2021-08-20T16:52:45Z</time>
      </trkpt>
      <trkpt lat="42.78493" lon="1.38664">
        <ele>1425</ele>
        <time>2021-08-20T16:52:52Z</time>
      </trkpt>
      <trkpt lat="42.78497" lon="1.38648">
        <ele>1425</ele>
        <time>2021-08-20T16:52:54Z</time>
      </trkpt>
      <trkpt lat="42.78539" lon="1.38555">
        <ele>1430</ele>
        <time>2021-08-20T16:53:08Z</time>
      </trkpt>
      <trkpt lat="42.78547" lon="1.38538">
        <ele>1430</ele>
        <time>2021-08-20T16:53:11Z</time>
      </trkpt>
      <trkpt lat="42.78557" lon="1.38524">
        <ele>1432</ele>
        <time>2021-08-20T16:53:13Z</time>
      </trkpt>
      <trkpt lat="42.78587" lon="1.3849">
        <ele>1435</ele>
        <time>2021-08-20T16:53:20Z</time>
      </trkpt>
      <trkpt lat="42.78599" lon="1.38482">
        <ele>1434</ele>
        <time>2021-08-20T16:53:23Z</time>
      </trkpt>
      <trkpt lat="42.78612" lon="1.38478">
        <ele>1436</ele>
        <time>2021-08-20T16:53:25Z</time>
      </trkpt>
      <trkpt lat="42.78631" lon="1.3848">
        <ele>1441</ele>
        <time>2021-08-20T16:53:28Z</time>
      </trkpt>
      <trkpt lat="42.78671" lon="1.38487">
        <ele>1452</ele>
        <time>2021-08-20T16:53:35Z</time>
      </trkpt>
      <trkpt lat="42.78686" lon="1.38487">
        <ele>1455</ele>
        <time>2021-08-20T16:53:38Z</time>
      </trkpt>
      <trkpt lat="42.78699" lon="1.38484">
        <ele>1457</ele>
        <time>2021-08-20T16:53:41Z</time>
      </trkpt>
      <trkpt lat="42.78718" lon="1.38474">
        <ele>1458</ele>
        <time>2021-08-20T16:53:44Z</time>
      </trkpt>
      <trkpt lat="42.78819" lon="1.38415">
        <ele>1468</ele>
        <time>2021-08-20T16:54:04Z</time>
      </trkpt>
      <trkpt lat="42.78829" lon="1.38408">
        <ele>1469</ele>
        <time>2021-08-20T16:54:06Z</time>
      </trkpt>
      <trkpt lat="42.78836" lon="1.384">
        <ele>1469</ele>
        <time>2021-08-20T16:54:07Z</time>
      </trkpt>
      <trkpt lat="42.78863" lon="1.3835">
        <ele>1463</ele>
        <time>2021-08-20T16:54:15Z</time>
      </trkpt>
      <trkpt lat="42.7889" lon="1.3831">
        <ele>1465</ele>
        <time>2021-08-20T16:54:23Z</time>
      </trkpt>
      <trkpt lat="42.78912" lon="1.3829">
        <ele>1471</ele>
        <time>2021-08-20T16:54:27Z</time>
      </trkpt>
      <trkpt lat="42.78922" lon="1.38277">
        <ele>1474</ele>
        <time>2021-08-20T16:54:30Z</time>
      </trkpt>
      <trkpt lat="42.78931" lon="1.38264">
        <ele>1476</ele>
        <time>2021-08-20T16:54:32Z</time>
      </trkpt>
      <trkpt lat="42.7895" lon="1.38225">
        <ele>1478</ele>
        <time>2021-08-20T16:54:38Z</time>
      </trkpt>
      <trkpt lat="42.78983" lon="1.38183">
        <ele>1486</ele>
        <time>2021-08-20T16:54:46Z</time>
      </trkpt>
      <trkpt lat="42.78994" lon="1.38161">
        <ele>1487</ele>
        <time>2021-08-20T16:54:50Z</time>
      </trkpt>
      <trkpt lat="42.79002" lon="1.38134">
        <ele>1492</ele>
        <time>2021-08-20T16:54:53Z</time>
      </trkpt>
      <trkpt lat="42.79003" lon="1.38118">
        <ele>1492</ele>
        <time>2021-08-20T16:54:56Z</time>
      </trkpt>
      <trkpt lat="42.79002" lon="1.38087">
        <ele>1490</ele>
        <time>2021-08-20T16:55:00Z</time>
      </trkpt>
      <trkpt lat="42.78998" lon="1.38037">
        <ele>1486</ele>
        <time>2021-08-20T16:55:06Z</time>
      </trkpt>
      <trkpt lat="42.78998" lon="1.38018">
        <ele>1485</ele>
        <time>2021-08-20T16:55:09Z</time>
      </trkpt>
      <trkpt lat="42.79001" lon="1.38008">
        <ele>1487</ele>
        <time>2021-08-20T16:55:10Z</time>
      </trkpt>
      <trkpt lat="42.79007" lon="1.37999">
        <ele>1490</ele>
        <time>2021-08-20T16:55:12Z</time>
      </trkpt>
      <trkpt lat="42.79033" lon="1.37975">
        <ele>1500</ele>
        <time>2021-08-20T16:55:17Z</time>
      </trkpt>
      <trkpt lat="42.79069" lon="1.37903">
        <ele>1501</ele>
        <time>2021-08-20T16:55:29Z</time>
      </trkpt>
      <trkpt lat="42.79085" lon="1.37881">
        <ele>1501</ele>
        <time>2021-08-20T16:55:33Z</time>
      </trkpt>
      <trkpt lat="42.79097" lon="1.37871">
        <ele>1503</ele>
        <time>2021-08-20T16:55:35Z</time>
      </trkpt>
      <trkpt lat="42.7914" lon="1.37845">
        <ele>1510</ele>
        <time>2021-08-20T16:55:44Z</time>
      </trkpt>
      <trkpt lat="42.79188" lon="1.37813">
        <ele>1518</ele>
        <time>2021-08-20T16:55:53Z</time>
      </trkpt>
      <trkpt lat="42.79213" lon="1.37792">
        <ele>1522</ele>
        <time>2021-08-20T16:55:58Z</time>
      </trkpt>
      <trkpt lat="42.79227" lon="1.37775">
        <ele>1523</ele>
        <time>2021-08-20T16:56:02Z</time>
      </trkpt>
      <trkpt lat="42.79233" lon="1.37762">
        <ele>1522</ele>
        <time>2021-08-20T16:56:04Z</time>
      </trkpt>
      <trkpt lat="42.79257" lon="1.37693">
        <ele>1525</ele>
        <time>2021-08-20T16:56:14Z</time>
      </trkpt>
      <trkpt lat="42.79263" lon="1.37671">
        <ele>1526</ele>
        <time>2021-08-20T16:56:17Z</time>
      </trkpt>
      <trkpt lat="42.79277" lon="1.37608">
        <ele>1534</ele>
        <time>2021-08-20T16:56:25Z</time>
      </trkpt>
      <trkpt lat="42.79279" lon="1.37599">
        <ele>1535</ele>
        <time>2021-08-20T16:56:26Z</time>
      </trkpt>
      <trkpt lat="42.79284" lon="1.37591">
        <ele>1536</ele>
        <time>2021-08-20T16:56:28Z</time>
      </trkpt>
      <trkpt lat="42.7929" lon="1.37589">
        <ele>1538</ele>
        <time>2021-08-20T16:56:29Z</time>
      </trkpt>
      <trkpt lat="42.79295" lon="1.37593">
        <ele>1539</ele>
        <time>2021-08-20T16:56:30Z</time>
      </trkpt>
      <trkpt lat="42.79297" lon="1.37601">
        <ele>1539</ele>
        <time>2021-08-20T16:56:31Z</time>
      </trkpt>
      <trkpt lat="42.79286" lon="1.37638">
        <ele>1535</ele>
        <time>2021-08-20T16:56:36Z</time>
      </trkpt>
      <trkpt lat="42.79269" lon="1.37722">
        <ele>1533</ele>
        <time>2021-08-20T16:56:48Z</time>
      </trkpt>
      <trkpt lat="42.79269" lon="1.37775">
        <ele>1542</ele>
        <time>2021-08-20T16:56:55Z</time>
      </trkpt>
      <trkpt lat="42.79267" lon="1.37789">
        <ele>1545</ele>
        <time>2021-08-20T16:56:56Z</time>
      </trkpt>
      <trkpt lat="42.79264" lon="1.37798">
        <ele>1546</ele>
        <time>2021-08-20T16:56:58Z</time>
      </trkpt>
      <trkpt lat="42.79256" lon="1.37813">
        <ele>1547</ele>
        <time>2021-08-20T16:57:00Z</time>
      </trkpt>
      <trkpt lat="42.79253" lon="1.37823">
        <ele>1548</ele>
        <time>2021-08-20T16:57:02Z</time>
      </trkpt>
      <trkpt lat="42.79254" lon="1.37831">
        <ele>1551</ele>
        <time>2021-08-20T16:57:03Z</time>
      </trkpt>
      <trkpt lat="42.79258" lon="1.37834">
        <ele>1553</ele>
        <time>2021-08-20T16:57:03Z</time>
      </trkpt>
      <trkpt lat="42.79262" lon="1.37833">
        <ele>1554</ele>
        <time>2021-08-20T16:57:04Z</time>
      </trkpt>
      <trkpt lat="42.79268" lon="1.37828">
        <ele>1555</ele>
        <time>2021-08-20T16:57:05Z</time>
      </trkpt>
      <trkpt lat="42.79272" lon="1.37822">
        <ele>1555</ele>
        <time>2021-08-20T16:57:06Z</time>
      </trkpt>
      <trkpt lat="42.79283" lon="1.37786">
        <ele>1550</ele>
        <time>2021-08-20T16:57:12Z</time>
      </trkpt>
      <trkpt lat="42.7929" lon="1.3776">
        <ele>1547</ele>
        <time>2021-08-20T16:57:15Z</time>
      </trkpt>
      <trkpt lat="42.79295" lon="1.37717">
        <ele>1544</ele>
        <time>2021-08-20T16:57:21Z</time>
      </trkpt>
      <trkpt lat="42.79299" lon="1.37699">
        <ele>1544</ele>
        <time>2021-08-20T16:57:23Z</time>
      </trkpt>
      <trkpt lat="42.79305" lon="1.37686">
        <ele>1545</ele>
        <time>2021-08-20T16:57:25Z</time>
      </trkpt>
      <trkpt lat="42.79314" lon="1.37677">
        <ele>1547</ele>
        <time>2021-08-20T16:57:27Z</time>
      </trkpt>
      <trkpt lat="42.79339" lon="1.37657">
        <ele>1555</ele>
        <time>2021-08-20T16:57:32Z</time>
      </trkpt>
      <trkpt lat="42.79355" lon="1.37638">
        <ele>1559</ele>
        <time>2021-08-20T16:57:36Z</time>
      </trkpt>
      <trkpt lat="42.79361" lon="1.37626">
        <ele>1560</ele>
        <time>2021-08-20T16:57:38Z</time>
      </trkpt>
      <trkpt lat="42.79376" lon="1.37585">
        <ele>1562</ele>
        <time>2021-08-20T16:57:44Z</time>
      </trkpt>
      <trkpt lat="42.79382" lon="1.3756">
        <ele>1564</ele>
        <time>2021-08-20T16:57:48Z</time>
      </trkpt>
      <trkpt lat="42.79391" lon="1.37519">
        <ele>1568</ele>
        <time>2021-08-20T16:57:53Z</time>
      </trkpt>
      <trkpt lat="42.79392" lon="1.37501">
        <ele>1568</ele>
        <time>2021-08-20T16:57:55Z</time>
      </trkpt>
      <trkpt lat="42.79392" lon="1.37435">
        <ele>1568</ele>
        <time>2021-08-20T16:58:04Z</time>
      </trkpt>
      <trkpt lat="42.79397" lon="1.37416">
        <ele>1568</ele>
        <time>2021-08-20T16:58:07Z</time>
      </trkpt>
      <trkpt lat="42.79405" lon="1.37397">
        <ele>1566</ele>
        <time>2021-08-20T16:58:10Z</time>
      </trkpt>
      <trkpt lat="42.79417" lon="1.3738">
        <ele>1564</ele>
        <time>2021-08-20T16:58:13Z</time>
      </trkpt>
      <trkpt lat="42.79427" lon="1.37369">
        <ele>1565</ele>
        <time>2021-08-20T16:58:15Z</time>
      </trkpt>
      <trkpt lat="42.7944" lon="1.37361">
        <ele>1566</ele>
        <time>2021-08-20T16:58:17Z</time>
      </trkpt>
      <trkpt lat="42.79466" lon="1.37349">
        <ele>1566</ele>
        <time>2021-08-20T16:58:22Z</time>
      </trkpt>
      <trkpt lat="42.79491" lon="1.37341">
        <ele>1566</ele>
        <time>2021-08-20T16:58:27Z</time>
      </trkpt>
      <trkpt lat="42.79516" lon="1.37338">
        <ele>1567</ele>
        <time>2021-08-20T16:58:31Z</time>
      </trkpt>
      <trkpt lat="42.79522" lon="1.37335">
        <ele>1567</ele>
        <time>2021-08-20T16:58:33Z</time>
      </trkpt>
      <trkpt lat="42.79528" lon="1.37327">
        <ele>1566</ele>
        <time>2021-08-20T16:58:34Z</time>
      </trkpt>
      <trkpt lat="42.79532" lon="1.37317">
        <ele>1564</ele>
        <time>2021-08-20T16:58:36Z</time>
      </trkpt>
      <trkpt lat="42.79532" lon="1.37306">
        <ele>1561</ele>
        <time>2021-08-20T16:58:37Z</time>
      </trkpt>
      <trkpt lat="42.79527" lon="1.37298">
        <ele>1559</ele>
        <time>2021-08-20T16:58:38Z</time>
      </trkpt>
      <trkpt lat="42.79519" lon="1.37295">
        <ele>1558</ele>
        <time>2021-08-20T16:58:40Z</time>
      </trkpt>
      <trkpt lat="42.79497" lon="1.37295">
        <ele>1558</ele>
        <time>2021-08-20T16:58:44Z</time>
      </trkpt>
      <trkpt lat="42.79483" lon="1.37299">
        <ele>1560</ele>
        <time>2021-08-20T16:58:46Z</time>
      </trkpt>
      <trkpt lat="42.79468" lon="1.37295">
        <ele>1561</ele>
        <time>2021-08-20T16:58:49Z</time>
      </trkpt>
      <trkpt lat="42.7946" lon="1.37285">
        <ele>1562</ele>
        <time>2021-08-20T16:58:51Z</time>
      </trkpt>
    </trkseg>
  </trk>
</gpx>